Airfield :







YOU CAN JOIN US ON...

 
LOGIN :

Register | Disclaimer

   EN    FR    IT 

 









Legend :    VFR   Marginal VFR   IFR   Intensive IFR   Very Intensive IFR
Visi :
Ceiling :
>= 8 km
>= 3000ft
5 to 8 km
1000 to 3000 ft
1500m to 5 km
500 to 1000 ft
800 to 1500m
200 to 500 ft
< 800m
< 200 ft
Symbols :   Thunderstorms  Fog  Heavy snow  Heavy precipitations  Wind > 20 kt







- Airport Elevation : 357 ft
- IATA code : YSJ


CYSJ - Saint John

CURRENT METAR :
  • 251200Z 35013G18KT 15SM FEW025 FEW110 M02/M12 A2990 RMK SC1AC2 SC TR SLP132

EXPIRED METARs :
  • 251100Z 34012KT 15SM FEW025 SCT110 M02/M09 A2988 RMK SC1AC2 SLP125
  • 251000Z 31005KT 15SM FEW025 SCT110 M01/M04 A2986 RMK SC1AC3 SLP118

TAF TAF CYSJ
Valid from the 25 at 12:00 until the 26 at 00:00 UTC


251139Z 2512/2524 34012KT P6SM FEW025 SCT100
BECMG 2514/2516 28012G22KT
BECMG 2522/2524 28008KT RMK NXT FCST BY 251800Z
CZQM FIR / North America



MET'MAP, your aeronautical weather chart ! - Copyright ORBIFLY December 2007 - Disclaimer

ORBIFLY MET'MAP TEAM :

Programming & Development : Alexandra Zaïnal
Concept & Development : Baudouin d'Aumeries
Co-Development & Prog : Marc-Olivier Méhu
Technical & hardware support : Manuel Goepfert

Contact : metmap@orbifly.com




SOURCES & CREDITS :

   NOAA